createdAt,value
2022-07-29T00:00:21.422Z,27.50
2022-07-29T00:03:10.559Z,27.50
2022-07-29T00:06:00.985Z,27.50
2022-07-29T00:08:50.727Z,27.50
2022-07-29T00:11:40.212Z,27.50
2022-07-29T00:14:30.553Z,27.50
2022-07-29T00:17:19.943Z,27.50
2022-07-29T00:20:10.141Z,27.50
2022-07-29T00:23:00.771Z,27.50
2022-07-29T00:25:50.360Z,27.30
2022-07-29T00:28:39.552Z,27.30
2022-07-29T00:31:28.939Z,27.30
2022-07-29T00:34:31.717Z,27.30
2022-07-29T00:37:20.812Z,27.20
2022-07-29T00:40:13.633Z,27.30
2022-07-29T00:43:03.429Z,27.30
2022-07-29T00:45:52.966Z,27.20
2022-07-29T00:48:42.335Z,27.20
2022-07-29T00:51:32.745Z,27.20
2022-07-29T00:54:24.026Z,27.20
2022-07-29T00:57:15.398Z,27.20
2022-07-29T01:00:05.132Z,27.20
2022-07-29T01:02:54.704Z,27.20
2022-07-29T01:05:50.553Z,27.20
2022-07-29T01:08:41.262Z,27.20
2022-07-29T01:11:30.560Z,27.10
2022-07-29T01:14:24.297Z,27.00
2022-07-29T01:17:20.142Z,26.90
2022-07-29T01:20:16.452Z,26.90
2022-07-29T01:23:44.194Z,26.90
2022-07-29T01:26:47.708Z,26.90
2022-07-29T01:29:43.915Z,26.90
2022-07-29T01:32:38.558Z,26.90
2022-07-29T01:35:33.039Z,26.70
2022-07-29T01:38:26.269Z,26.80
2022-07-29T01:41:18.891Z,26.80
2022-07-29T01:44:16.045Z,26.90
2022-07-29T01:47:13.087Z,27.00
2022-07-29T01:50:08.747Z,27.00
2022-07-29T01:53:02.776Z,27.00
2022-07-29T01:55:53.457Z,26.90
2022-07-29T01:58:45.795Z,26.90
2022-07-29T02:01:36.239Z,27.00
2022-07-29T02:04:30.010Z,27.00
2022-07-29T02:07:22.447Z,27.00
2022-07-29T02:10:12.771Z,27.00
2022-07-29T02:13:04.496Z,27.00
2022-07-29T02:15:55.838Z,27.00
2022-07-29T02:18:49.941Z,27.00
2022-07-29T02:21:43.556Z,27.00
2022-07-29T02:24:33.541Z,26.90
2022-07-29T02:27:23.281Z,26.90
2022-07-29T02:30:14.389Z,26.90
2022-07-29T02:33:04.499Z,26.90
2022-07-29T02:35:56.046Z,26.90
2022-07-29T02:38:54.733Z,26.80
2022-07-29T02:41:47.871Z,26.80
2022-07-29T02:44:37.991Z,26.80
2022-07-29T02:47:42.169Z,26.80
2022-07-29T02:50:36.702Z,26.80
2022-07-29T02:53:27.671Z,26.80
2022-07-29T02:56:22.464Z,26.80
2022-07-29T02:59:16.254Z,26.80
2022-07-29T03:02:07.040Z,26.80
2022-07-29T03:04:58.165Z,26.80
2022-07-29T03:07:50.425Z,26.80
2022-07-29T03:10:41.837Z,26.80
2022-07-29T03:13:33.178Z,26.80
2022-07-29T03:16:23.351Z,26.80
2022-07-29T03:19:12.866Z,26.70
2022-07-29T03:22:02.862Z,26.70
2022-07-29T03:24:52.293Z,26.70
2022-07-29T03:27:41.707Z,26.60
2022-07-29T03:33:21.986Z,26.40
2022-07-29T03:36:11.519Z,26.40
2022-07-29T03:39:00.670Z,26.40
2022-07-29T03:41:53.127Z,26.40
2022-07-29T03:44:44.327Z,26.40
2022-07-29T03:47:50.224Z,26.50
2022-07-29T03:50:40.178Z,26.50
2022-07-29T03:53:29.319Z,26.50
2022-07-29T03:56:19.900Z,26.50
2022-07-29T03:59:10.045Z,26.40
2022-07-29T04:02:00.688Z,26.40
2022-07-29T04:04:51.494Z,26.40
2022-07-29T04:07:40.831Z,26.40
2022-07-29T04:10:32.144Z,26.40
2022-07-29T04:13:23.517Z,26.50
2022-07-29T04:16:12.387Z,26.50
2022-07-29T04:19:01.181Z,26.60
2022-07-29T04:21:53.987Z,26.60
2022-07-29T04:24:44.557Z,26.60
2022-07-29T04:27:34.221Z,26.70
2022-07-29T04:30:23.325Z,26.60
2022-07-29T04:33:13.260Z,26.60
2022-07-29T04:36:02.543Z,26.60
2022-07-29T04:38:54.053Z,26.60
2022-07-29T04:41:43.005Z,26.50
2022-07-29T04:44:32.362Z,26.50
2022-07-29T04:47:26.642Z,26.50
2022-07-29T04:50:15.588Z,26.40
2022-07-29T04:53:04.760Z,26.30
2022-07-29T04:55:55.383Z,26.30
2022-07-29T05:01:34.269Z,25.40
2022-07-29T05:04:24.014Z,26.00
2022-07-29T05:07:13.323Z,26.10
2022-07-29T05:10:02.763Z,26.10
2022-07-29T05:12:54.456Z,26.20
2022-07-29T05:15:44.005Z,26.20
2022-07-29T05:18:33.315Z,26.30
2022-07-29T05:21:22.768Z,26.30
2022-07-29T05:24:11.374Z,26.30
2022-07-29T05:26:59.966Z,26.30
2022-07-29T05:29:50.198Z,26.40
2022-07-29T05:32:39.302Z,26.40
2022-07-29T05:35:28.880Z,26.60
2022-07-29T05:38:18.378Z,26.70
2022-07-29T05:41:07.896Z,26.70
2022-07-29T05:43:57.176Z,26.70
2022-07-29T05:46:48.056Z,26.70
2022-07-29T05:49:38.401Z,26.70
2022-07-29T05:52:27.418Z,26.80
2022-07-29T05:55:16.545Z,26.90
2022-07-29T05:58:05.980Z,27.00
2022-07-29T06:00:57.149Z,27.10
2022-07-29T06:03:48.070Z,27.10
2022-07-29T06:06:37.431Z,27.10
2022-07-29T06:09:26.954Z,27.10
2022-07-29T06:12:16.095Z,27.00
2022-07-29T06:15:05.624Z,27.00
2022-07-29T06:17:59.952Z,27.00
2022-07-29T06:20:52.270Z,27.00
2022-07-29T06:23:41.951Z,27.00
2022-07-29T06:26:33.365Z,27.10
2022-07-29T06:29:25.723Z,27.10
2022-07-29T06:32:15.461Z,27.20
2022-07-29T06:35:33.038Z,27.30
2022-07-29T06:38:30.270Z,27.30
2022-07-29T06:41:21.348Z,27.40
2022-07-29T06:44:09.973Z,27.30
2022-07-29T06:46:59.078Z,27.40
2022-07-29T06:49:48.388Z,27.50
2022-07-29T06:52:38.227Z,27.50
2022-07-29T06:55:28.894Z,27.40
2022-07-29T06:58:19.254Z,27.50
2022-07-29T07:01:09.710Z,27.60
2022-07-29T07:03:58.680Z,27.80
2022-07-29T07:06:47.874Z,27.70
2022-07-29T07:09:40.600Z,27.60
2022-07-29T07:12:31.362Z,27.70
2022-07-29T07:15:22.923Z,27.80
2022-07-29T07:21:19.230Z,28.10
2022-07-29T07:24:09.927Z,28.10
2022-07-29T07:29:50.546Z,28.40
2022-07-29T07:32:39.663Z,28.40
2022-07-29T07:35:29.649Z,28.60
2022-07-29T07:38:19.382Z,28.50
2022-07-29T07:43:58.181Z,28.70
2022-07-29T07:46:48.963Z,28.80
2022-07-29T07:55:16.767Z,28.90
2022-07-29T07:58:05.870Z,28.90
2022-07-29T08:00:55.410Z,28.90
2022-07-29T08:03:46.512Z,28.90
2022-07-29T08:06:36.146Z,28.90
2022-07-29T08:09:29.792Z,28.80
2022-07-29T08:12:19.439Z,28.70
2022-07-29T08:17:59.113Z,28.70
2022-07-29T08:20:49.649Z,28.60
2022-07-29T08:23:49.611Z,28.60
2022-07-29T08:26:42.532Z,28.60
2022-07-29T08:29:31.462Z,28.70
2022-07-29T08:32:43.485Z,28.60
2022-07-29T08:35:35.087Z,28.60
2022-07-29T08:38:28.415Z,28.40
2022-07-29T08:41:20.195Z,28.30
2022-07-29T08:44:09.463Z,28.30
2022-07-29T08:46:58.293Z,28.40
2022-07-29T08:49:49.503Z,28.40
2022-07-29T08:52:41.912Z,28.50
2022-07-29T08:55:32.344Z,28.50
2022-07-29T08:58:23.194Z,28.50
2022-07-29T09:01:16.296Z,28.50
2022-07-29T09:04:13.857Z,28.50
2022-07-29T09:07:06.968Z,28.50
2022-07-29T09:09:57.556Z,28.60
2022-07-29T09:12:48.698Z,28.60
2022-07-29T09:15:37.803Z,28.60
2022-07-29T09:18:40.267Z,28.70
2022-07-29T09:22:03.777Z,28.70
2022-07-29T09:24:52.665Z,28.70
2022-07-29T09:27:41.798Z,28.60
2022-07-29T09:33:23.474Z,29.00
2022-07-29T09:36:13.234Z,29.00
2022-07-29T09:39:03.677Z,29.00
2022-07-29T09:41:54.201Z,29.00
2022-07-29T09:44:45.119Z,29.00
2022-07-29T09:47:48.306Z,29.00
2022-07-29T09:50:42.427Z,29.10
2022-07-29T09:56:40.816Z,29.20
2022-07-29T10:02:23.541Z,29.30
2022-07-29T10:05:23.170Z,29.50
2022-07-29T10:08:13.534Z,29.50
2022-07-29T10:16:52.091Z,29.60
2022-07-29T10:19:43.110Z,29.70
2022-07-29T10:49:18.353Z,31.90
2022-07-29T10:58:18.946Z,30.60
2022-07-29T11:08:25.956Z,30.90
2022-07-29T11:11:43.710Z,31.00
2022-07-29T11:15:02.955Z,31.20
2022-07-29T11:18:15.111Z,31.30
2022-07-29T11:21:06.110Z,31.30
2022-07-29T11:24:14.769Z,31.40
2022-07-29T11:27:13.208Z,31.50
2022-07-29T11:30:04.981Z,31.60
2022-07-29T11:38:50.277Z,32.00
2022-07-29T11:44:57.532Z,32.30
2022-07-29T11:47:54.099Z,32.30
2022-07-29T11:56:25.911Z,32.60
2022-07-29T11:59:16.134Z,32.70
2022-07-29T12:02:36.698Z,32.80
2022-07-29T12:05:36.371Z,33.00
2022-07-29T12:08:27.373Z,33.20
2022-07-29T12:11:20.371Z,33.30
2022-07-29T12:14:10.189Z,33.50
2022-07-29T12:16:59.606Z,33.60
2022-07-29T12:19:49.003Z,33.80
2022-07-29T12:22:43.067Z,34.00
2022-07-29T12:25:36.740Z,34.00
2022-07-29T12:28:27.454Z,34.00
2022-07-29T12:31:43.897Z,34.00
2022-07-29T12:34:30.941Z,34.00
2022-07-29T12:40:26.879Z,34.30
2022-07-29T12:43:17.036Z,34.40
2022-07-29T12:46:15.898Z,34.30
2022-07-29T12:49:06.012Z,34.00
2022-07-29T12:51:55.552Z,33.60
2022-07-29T12:54:49.808Z,33.40
2022-07-29T12:57:49.643Z,33.30
2022-07-29T13:00:38.758Z,33.20
2022-07-29T13:03:27.815Z,33.30
2022-07-29T13:06:37.459Z,33.20
2022-07-29T13:12:17.019Z,32.80
2022-07-29T13:15:17.700Z,32.60
2022-07-29T13:18:08.479Z,32.30
2022-07-29T13:20:57.376Z,32.30
2022-07-29T13:23:46.375Z,32.10
2022-07-29T13:26:35.558Z,32.00
2022-07-29T13:29:25.768Z,31.80
2022-07-29T13:32:18.941Z,31.70
2022-07-29T13:35:17.157Z,31.60
2022-07-29T13:38:06.360Z,31.50
2022-07-29T13:40:55.968Z,31.40
2022-07-29T13:43:45.029Z,31.30
2022-07-29T13:46:33.995Z,31.20
2022-07-29T13:49:24.908Z,31.20
2022-07-29T13:52:13.919Z,31.10
2022-07-29T13:55:03.471Z,31.00
2022-07-29T13:57:52.360Z,30.90
2022-07-29T14:03:30.854Z,30.70
2022-07-29T14:06:22.258Z,30.50
2022-07-29T14:12:00.805Z,30.10
2022-07-29T14:14:49.909Z,29.70
2022-07-29T14:17:38.956Z,29.40
2022-07-29T14:20:29.777Z,29.20
2022-07-29T14:23:20.586Z,29.00
2022-07-29T14:26:14.018Z,28.90
2022-07-29T14:29:11.035Z,29.10
2022-07-29T14:32:00.871Z,29.20
2022-07-29T14:34:49.991Z,29.30
2022-07-29T14:37:40.507Z,29.40
2022-07-29T14:40:31.452Z,29.40
2022-07-29T14:43:20.590Z,29.40
2022-07-29T14:46:11.190Z,29.40
2022-07-29T14:49:00.449Z,29.40
2022-07-29T14:51:49.510Z,29.40
2022-07-29T14:54:38.591Z,29.50
2022-07-29T14:57:29.780Z,29.50
2022-07-29T15:00:19.646Z,29.40
2022-07-29T15:03:11.346Z,29.40
2022-07-29T15:06:01.351Z,29.20
2022-07-29T15:08:50.666Z,29.10
2022-07-29T15:11:39.875Z,29.10
2022-07-29T15:17:19.698Z,28.70
2022-07-29T15:20:09.608Z,28.50
2022-07-29T15:22:59.248Z,28.40
2022-07-29T15:25:48.515Z,28.30
2022-07-29T15:28:37.162Z,28.30
2022-07-29T15:31:28.003Z,28.30
2022-07-29T15:34:17.026Z,28.30
2022-07-29T15:37:06.110Z,28.20
2022-07-29T15:39:59.898Z,28.20
2022-07-29T15:42:49.347Z,28.20
2022-07-29T15:45:40.313Z,28.20
2022-07-29T15:48:32.413Z,28.30
2022-07-29T15:51:21.629Z,28.20
2022-07-29T15:54:11.261Z,28.00
2022-07-29T15:57:01.182Z,27.90
2022-07-29T15:59:50.413Z,27.90
2022-07-29T16:02:39.630Z,27.90
2022-07-29T16:05:30.104Z,27.90
2022-07-29T16:08:19.499Z,28.00
2022-07-29T16:11:08.740Z,28.00
2022-07-29T16:13:57.922Z,28.10
2022-07-29T16:16:47.360Z,28.20
2022-07-29T16:19:37.059Z,28.20
2022-07-29T16:22:28.962Z,28.10
2022-07-29T16:25:18.237Z,28.10
2022-07-29T16:28:08.762Z,28.10
2022-07-29T16:30:57.965Z,28.10
2022-07-29T16:33:55.050Z,27.90
2022-07-29T16:36:47.831Z,28.00
2022-07-29T16:39:38.270Z,28.10
2022-07-29T16:42:45.579Z,28.10
2022-07-29T16:45:45.419Z,28.10
2022-07-29T16:48:36.100Z,28.10
2022-07-29T16:51:27.596Z,28.20
2022-07-29T16:54:16.685Z,28.20
2022-07-29T16:57:07.780Z,28.20
2022-07-29T16:59:57.290Z,28.30
2022-07-29T17:02:47.308Z,28.30
2022-07-29T17:05:50.435Z,28.40
2022-07-29T17:08:43.637Z,28.40
2022-07-29T17:11:52.325Z,28.40
2022-07-29T17:14:43.675Z,28.40
2022-07-29T17:17:39.140Z,28.40
2022-07-29T17:20:42.834Z,28.30
2022-07-29T17:23:32.093Z,28.30
2022-07-29T17:26:22.167Z,28.30
2022-07-29T17:29:11.313Z,28.30
2022-07-29T17:32:01.914Z,28.30
2022-07-29T17:34:51.007Z,28.40
2022-07-29T17:37:40.106Z,28.40
2022-07-29T17:40:29.611Z,28.40
2022-07-29T17:43:18.707Z,28.40
2022-07-29T17:46:08.286Z,28.40
2022-07-29T17:48:59.947Z,28.40
2022-07-29T17:51:49.383Z,28.40
2022-07-29T17:54:38.644Z,28.40
2022-07-29T17:57:28.091Z,28.40
2022-07-29T18:00:17.836Z,28.40
2022-07-29T18:03:07.447Z,28.40
2022-07-29T18:05:58.040Z,28.30
2022-07-29T18:08:49.722Z,28.30
2022-07-29T18:11:39.630Z,28.30
2022-07-29T18:14:34.064Z,28.30
2022-07-29T18:17:23.419Z,28.20
2022-07-29T18:20:33.407Z,28.10
2022-07-29T18:23:23.619Z,28.00
2022-07-29T18:26:13.126Z,27.90
2022-07-29T18:29:01.803Z,27.80
2022-07-29T18:31:50.914Z,27.80
2022-07-29T18:34:40.185Z,27.80
2022-07-29T18:38:00.803Z,27.70
2022-07-29T18:40:42.113Z,27.60
2022-07-29T18:43:31.575Z,27.50
2022-07-29T18:46:20.556Z,27.50
2022-07-29T18:49:10.524Z,27.50
2022-07-29T18:51:59.417Z,27.40
2022-07-29T18:54:48.904Z,27.40
2022-07-29T18:57:54.334Z,27.30
2022-07-29T19:00:45.842Z,27.30
2022-07-29T19:03:34.938Z,27.30
2022-07-29T19:06:25.885Z,27.30
2022-07-29T19:09:16.111Z,27.20
2022-07-29T19:12:05.747Z,27.10
2022-07-29T19:14:56.434Z,27.10
2022-07-29T19:17:46.658Z,27.00
2022-07-29T19:20:36.396Z,26.90
2022-07-29T19:23:25.525Z,26.90
2022-07-29T19:26:20.302Z,26.80
2022-07-29T19:29:09.747Z,26.80
2022-07-29T19:32:01.844Z,26.80
2022-07-29T19:35:04.451Z,26.70
2022-07-29T19:37:53.701Z,26.70
2022-07-29T19:40:43.119Z,26.70
2022-07-29T19:46:41.391Z,26.60
2022-07-29T19:49:32.965Z,26.50
2022-07-29T19:52:22.387Z,26.50
2022-07-29T19:55:12.941Z,26.50
2022-07-29T19:58:03.409Z,26.40
2022-07-29T20:00:54.720Z,26.30
2022-07-29T20:03:44.798Z,26.30
2022-07-29T20:06:36.429Z,26.30
2022-07-29T20:09:25.430Z,26.30
2022-07-29T20:12:14.159Z,26.20
2022-07-29T20:15:03.719Z,26.10
2022-07-29T20:17:57.165Z,26.10
2022-07-29T20:20:48.087Z,26.10
2022-07-29T20:23:38.850Z,26.10
2022-07-29T20:26:28.152Z,26.10
2022-07-29T20:29:17.200Z,26.00
2022-07-29T20:32:06.708Z,26.10
2022-07-29T20:34:55.502Z,26.00
2022-07-29T20:37:56.168Z,26.00
2022-07-29T20:40:48.918Z,26.00
2022-07-29T20:43:39.113Z,26.00
2022-07-29T20:46:29.296Z,26.10
2022-07-29T20:49:18.988Z,26.10
2022-07-29T20:52:08.744Z,26.10
2022-07-29T20:54:58.124Z,26.10
2022-07-29T20:57:48.675Z,26.10
2022-07-29T21:00:38.432Z,26.10
2022-07-29T21:03:27.847Z,26.20
2022-07-29T21:06:16.934Z,26.10
2022-07-29T21:09:06.318Z,26.10
2022-07-29T21:11:55.485Z,26.10
2022-07-29T21:14:48.179Z,26.00
2022-07-29T21:20:31.375Z,26.00
2022-07-29T21:23:20.479Z,25.80
2022-07-29T21:26:12.947Z,25.80
2022-07-29T21:34:40.857Z,25.60
2022-07-29T21:37:30.189Z,25.50
2022-07-29T21:40:21.001Z,25.60
2022-07-29T21:43:10.602Z,25.60
2022-07-29T21:46:01.833Z,25.60
2022-07-29T21:48:52.306Z,25.80
2022-07-29T21:51:41.652Z,25.60
2022-07-29T21:57:21.021Z,25.40
2022-07-29T22:00:15.930Z,25.40
2022-07-29T22:03:05.548Z,25.40
2022-07-29T22:05:56.471Z,25.40
2022-07-29T22:11:36.999Z,25.30
2022-07-29T22:14:26.085Z,25.30
2022-07-29T22:17:15.194Z,25.40
2022-07-29T22:20:04.990Z,25.30
2022-07-29T22:22:55.986Z,25.40
2022-07-29T22:25:44.958Z,25.30
2022-07-29T22:28:34.214Z,25.30
2022-07-29T22:31:23.111Z,25.40
2022-07-29T22:34:13.658Z,25.50
2022-07-29T22:37:03.623Z,25.30
2022-07-29T22:39:54.375Z,25.30
2022-07-29T22:42:43.485Z,25.30
2022-07-29T22:45:32.838Z,25.30
2022-07-29T22:48:22.494Z,25.30
2022-07-29T22:51:11.717Z,25.40
2022-07-29T22:54:01.155Z,25.40
2022-07-29T22:56:51.899Z,25.50
2022-07-29T22:59:40.998Z,25.60
2022-07-29T23:02:30.033Z,25.50
2022-07-29T23:05:19.095Z,25.50
2022-07-29T23:08:08.198Z,25.50
2022-07-29T23:10:57.002Z,25.50
2022-07-29T23:13:47.544Z,25.40
2022-07-29T23:16:37.001Z,25.40
2022-07-29T23:19:26.611Z,25.40
2022-07-29T23:22:16.024Z,25.50
2022-07-29T23:25:09.065Z,25.50
2022-07-29T23:27:58.386Z,25.50
2022-07-29T23:30:48.908Z,25.50
2022-07-29T23:33:38.016Z,25.60
2022-07-29T23:36:27.620Z,25.60
2022-07-29T23:39:17.930Z,25.60
2022-07-29T23:42:07.354Z,25.40
2022-07-29T23:44:56.903Z,25.40
2022-07-29T23:47:47.425Z,25.40
2022-07-29T23:50:36.352Z,25.40
2022-07-29T23:53:25.676Z,25.40
2022-07-29T23:56:14.956Z,25.50
2022-07-29T23:59:06.093Z,25.50
